sensor_id;sensor_type;location;lat;lon;timestamp;P1;durP1;ratioP1;P2;durP2;ratioP2
52898;SDS011;38763;53.096;6.062;2024-02-28T00:01:59;45.92;;;21.50;;
52898;SDS011;38763;53.096;6.062;2024-02-28T00:04:25;46.00;;;21.27;;
52898;SDS011;38763;53.096;6.062;2024-02-28T00:06:50;49.45;;;21.42;;
52898;SDS011;38763;53.096;6.062;2024-02-28T00:09:16;53.58;;;23.05;;
52898;SDS011;38763;53.096;6.062;2024-02-28T00:11:45;55.65;;;23.63;;
52898;SDS011;38763;53.096;6.062;2024-02-28T00:14:12;54.17;;;22.80;;
52898;SDS011;38763;53.096;6.062;2024-02-28T00:16:41;54.05;;;22.45;;
52898;SDS011;38763;53.096;6.062;2024-02-28T00:19:10;50.72;;;22.45;;
52898;SDS011;38763;53.096;6.062;2024-02-28T00:21:38;57.45;;;23.98;;
52898;SDS011;38763;53.096;6.062;2024-02-28T00:24:04;53.67;;;23.98;;
52898;SDS011;38763;53.096;6.062;2024-02-28T00:26:31;59.90;;;24.10;;
52898;SDS011;38763;53.096;6.062;2024-02-28T00:28:56;60.97;;;23.27;;
52898;SDS011;38763;53.096;6.062;2024-02-28T00:31:22;58.90;;;23.30;;
52898;SDS011;38763;53.096;6.062;2024-02-28T00:33:48;65.18;;;24.65;;
52898;SDS011;38763;53.096;6.062;2024-02-28T00:36:14;58.92;;;23.33;;
52898;SDS011;38763;53.096;6.062;2024-02-28T00:38:42;67.03;;;24.75;;
52898;SDS011;38763;53.096;6.062;2024-02-28T00:41:08;73.18;;;25.70;;
52898;SDS011;38763;53.096;6.062;2024-02-28T00:43:34;69.80;;;24.98;;
52898;SDS011;38763;53.096;6.062;2024-02-28T00:45:59;82.97;;;26.35;;
52898;SDS011;38763;53.096;6.062;2024-02-28T00:48:25;98.28;;;27.23;;
52898;SDS011;38763;53.096;6.062;2024-02-28T00:50:51;80.72;;;27.60;;
52898;SDS011;38763;53.096;6.062;2024-02-28T00:53:18;86.28;;;27.90;;
52898;SDS011;38763;53.096;6.062;2024-02-28T00:55:44;83.63;;;28.88;;
52898;SDS011;38763;53.096;6.062;2024-02-28T00:58:13;88.85;;;28.05;;
52898;SDS011;38763;53.096;6.062;2024-02-28T01:00:38;98.45;;;30.98;;
52898;SDS011;38763;53.096;6.062;2024-02-28T01:03:04;106.28;;;31.42;;
52898;SDS011;38763;53.096;6.062;2024-02-28T01:05:30;99.63;;;28.42;;
52898;SDS011;38763;53.096;6.062;2024-02-28T01:07:56;100.28;;;29.70;;
52898;SDS011;38763;53.096;6.062;2024-02-28T01:10:21;93.55;;;29.65;;
52898;SDS011;38763;53.096;6.062;2024-02-28T01:12:48;82.25;;;29.75;;
52898;SDS011;38763;53.096;6.062;2024-02-28T01:15:14;85.60;;;32.05;;
52898;SDS011;38763;53.096;6.062;2024-02-28T01:17:39;112.80;;;33.63;;
52898;SDS011;38763;53.096;6.062;2024-02-28T01:20:06;102.55;;;31.08;;
52898;SDS011;38763;53.096;6.062;2024-02-28T01:22:33;122.70;;;34.17;;
52898;SDS011;38763;53.096;6.062;2024-02-28T01:24:59;104.70;;;33.60;;
52898;SDS011;38763;53.096;6.062;2024-02-28T01:27:24;119.68;;;35.42;;
52898;SDS011;38763;53.096;6.062;2024-02-28T01:29:50;113.85;;;34.75;;
52898;SDS011;38763;53.096;6.062;2024-02-28T01:32:17;109.85;;;35.58;;
52898;SDS011;38763;53.096;6.062;2024-02-28T01:34:43;118.95;;;35.05;;
52898;SDS011;38763;53.096;6.062;2024-02-28T01:37:08;93.32;;;34.15;;
52898;SDS011;38763;53.096;6.062;2024-02-28T01:39:34;98.63;;;34.03;;
52898;SDS011;38763;53.096;6.062;2024-02-28T01:41:59;93.28;;;33.05;;
52898;SDS011;38763;53.096;6.062;2024-02-28T01:44:25;101.82;;;33.25;;
52898;SDS011;38763;53.096;6.062;2024-02-28T01:46:51;101.47;;;34.35;;
52898;SDS011;38763;53.096;6.062;2024-02-28T01:49:19;98.75;;;34.45;;
52898;SDS011;38763;53.096;6.062;2024-02-28T01:51:45;80.85;;;32.08;;
52898;SDS011;38763;53.096;6.062;2024-02-28T01:54:12;92.28;;;33.00;;
52898;SDS011;38763;53.096;6.062;2024-02-28T01:56:39;91.50;;;34.90;;
52898;SDS011;38763;53.096;6.062;2024-02-28T01:59:05;90.25;;;33.30;;
52898;SDS011;38763;53.096;6.062;2024-02-28T02:01:32;86.53;;;32.67;;
52898;SDS011;38763;53.096;6.062;2024-02-28T02:03:58;91.18;;;32.97;;
52898;SDS011;38763;53.096;6.062;2024-02-28T02:06:23;87.43;;;32.78;;
52898;SDS011;38763;53.096;6.062;2024-02-28T02:08:49;89.38;;;33.85;;
52898;SDS011;38763;53.096;6.062;2024-02-28T02:11:15;81.70;;;32.08;;
52898;SDS011;38763;53.096;6.062;2024-02-28T02:13:50;86.30;;;32.10;;
52898;SDS011;38763;53.096;6.062;2024-02-28T02:16:16;90.47;;;33.58;;
52898;SDS011;38763;53.096;6.062;2024-02-28T02:18:44;86.60;;;34.10;;
52898;SDS011;38763;53.096;6.062;2024-02-28T02:21:10;86.65;;;33.60;;
52898;SDS011;38763;53.096;6.062;2024-02-28T02:23:37;83.50;;;32.53;;
52898;SDS011;38763;53.096;6.062;2024-02-28T02:26:06;83.18;;;32.92;;
52898;SDS011;38763;53.096;6.062;2024-02-28T02:28:32;84.20;;;32.88;;
52898;SDS011;38763;53.096;6.062;2024-02-28T02:30:58;92.65;;;32.60;;
52898;SDS011;38763;53.096;6.062;2024-02-28T02:33:23;83.05;;;33.45;;
52898;SDS011;38763;53.096;6.062;2024-02-28T02:35:49;85.38;;;34.72;;
52898;SDS011;38763;53.096;6.062;2024-02-28T02:38:15;85.03;;;34.95;;
52898;SDS011;38763;53.096;6.062;2024-02-28T02:40:40;95.55;;;35.25;;
52898;SDS011;38763;53.096;6.062;2024-02-28T02:43:06;83.20;;;33.90;;
52898;SDS011;38763;53.096;6.062;2024-02-28T02:45:32;82.53;;;33.83;;
52898;SDS011;38763;53.096;6.062;2024-02-28T02:47:57;86.20;;;33.80;;
52898;SDS011;38763;53.096;6.062;2024-02-28T02:50:23;90.60;;;33.47;;
52898;SDS011;38763;53.096;6.062;2024-02-28T02:52:48;89.88;;;35.70;;
52898;SDS011;38763;53.096;6.062;2024-02-28T02:55:14;86.97;;;33.75;;
52898;SDS011;38763;53.096;6.062;2024-02-28T02:57:40;86.78;;;33.28;;
52898;SDS011;38763;53.096;6.062;2024-02-28T03:00:09;83.78;;;33.40;;
52898;SDS011;38763;53.096;6.062;2024-02-28T03:02:35;87.25;;;32.70;;
52898;SDS011;38763;53.096;6.062;2024-02-28T03:05:03;79.97;;;31.45;;
52898;SDS011;38763;53.096;6.062;2024-02-28T03:07:29;84.47;;;32.95;;
52898;SDS011;38763;53.096;6.062;2024-02-28T03:09:55;86.82;;;33.13;;
52898;SDS011;38763;53.096;6.062;2024-02-28T03:12:21;86.97;;;32.83;;
52898;SDS011;38763;53.096;6.062;2024-02-28T03:14:47;77.20;;;30.98;;
52898;SDS011;38763;53.096;6.062;2024-02-28T03:17:13;72.25;;;29.60;;
52898;SDS011;38763;53.096;6.062;2024-02-28T03:19:40;75.38;;;30.50;;
52898;SDS011;38763;53.096;6.062;2024-02-28T03:22:08;81.45;;;31.23;;
52898;SDS011;38763;53.096;6.062;2024-02-28T03:24:34;75.60;;;30.80;;
52898;SDS011;38763;53.096;6.062;2024-02-28T03:27:03;78.57;;;32.63;;
52898;SDS011;38763;53.096;6.062;2024-02-28T03:29:29;74.22;;;30.27;;
52898;SDS011;38763;53.096;6.062;2024-02-28T03:31:55;78.72;;;30.80;;
52898;SDS011;38763;53.096;6.062;2024-02-28T03:34:21;80.05;;;32.33;;
52898;SDS011;38763;53.096;6.062;2024-02-28T03:36:46;76.82;;;30.75;;
52898;SDS011;38763;53.096;6.062;2024-02-28T03:39:12;76.45;;;29.23;;
52898;SDS011;38763;53.096;6.062;2024-02-28T03:41:38;75.97;;;30.15;;
52898;SDS011;38763;53.096;6.062;2024-02-28T03:44:04;71.15;;;29.98;;
52898;SDS011;38763;53.096;6.062;2024-02-28T03:46:30;72.88;;;31.13;;
52898;SDS011;38763;53.096;6.062;2024-02-28T03:48:56;78.30;;;31.17;;
52898;SDS011;38763;53.096;6.062;2024-02-28T03:51:21;76.93;;;29.42;;
52898;SDS011;38763;53.096;6.062;2024-02-28T03:53:47;75.97;;;30.17;;
52898;SDS011;38763;53.096;6.062;2024-02-28T03:56:13;76.18;;;31.48;;
52898;SDS011;38763;53.096;6.062;2024-02-28T03:58:46;73.68;;;29.00;;
52898;SDS011;38763;53.096;6.062;2024-02-28T04:01:12;73.13;;;30.73;;
52898;SDS011;38763;53.096;6.062;2024-02-28T04:03:38;76.38;;;30.40;;
52898;SDS011;38763;53.096;6.062;2024-02-28T04:06:04;71.40;;;29.10;;
52898;SDS011;38763;53.096;6.062;2024-02-28T04:08:29;69.80;;;27.52;;
52898;SDS011;38763;53.096;6.062;2024-02-28T04:10:55;70.13;;;29.33;;
52898;SDS011;38763;53.096;6.062;2024-02-28T04:13:20;75.78;;;30.02;;
52898;SDS011;38763;53.096;6.062;2024-02-28T04:15:46;77.93;;;30.42;;
52898;SDS011;38763;53.096;6.062;2024-02-28T04:18:12;69.88;;;30.13;;
52898;SDS011;38763;53.096;6.062;2024-02-28T04:20:38;78.70;;;31.80;;
52898;SDS011;38763;53.096;6.062;2024-02-28T04:23:03;73.07;;;29.17;;
52898;SDS011;38763;53.096;6.062;2024-02-28T04:25:29;69.13;;;29.27;;
52898;SDS011;38763;53.096;6.062;2024-02-28T04:27:55;71.38;;;28.83;;
52898;SDS011;38763;53.096;6.062;2024-02-28T04:30:22;77.95;;;29.73;;
52898;SDS011;38763;53.096;6.062;2024-02-28T04:32:47;71.75;;;30.50;;
52898;SDS011;38763;53.096;6.062;2024-02-28T04:35:13;71.22;;;30.35;;
52898;SDS011;38763;53.096;6.062;2024-02-28T04:37:43;70.40;;;29.85;;
52898;SDS011;38763;53.096;6.062;2024-02-28T04:40:09;72.57;;;30.58;;
52898;SDS011;38763;53.096;6.062;2024-02-28T04:42:36;74.25;;;30.40;;
52898;SDS011;38763;53.096;6.062;2024-02-28T04:45:01;73.97;;;30.67;;
52898;SDS011;38763;53.096;6.062;2024-02-28T04:47:27;74.03;;;29.88;;
52898;SDS011;38763;53.096;6.062;2024-02-28T04:49:53;76.43;;;30.88;;
52898;SDS011;38763;53.096;6.062;2024-02-28T04:52:20;72.50;;;31.50;;
52898;SDS011;38763;53.096;6.062;2024-02-28T04:54:47;75.82;;;31.23;;
52898;SDS011;38763;53.096;6.062;2024-02-28T04:57:12;76.38;;;31.17;;
52898;SDS011;38763;53.096;6.062;2024-02-28T04:59:38;74.53;;;30.85;;
52898;SDS011;38763;53.096;6.062;2024-02-28T05:02:04;78.25;;;32.83;;
52898;SDS011;38763;53.096;6.062;2024-02-28T05:04:30;74.00;;;30.73;;
52898;SDS011;38763;53.096;6.062;2024-02-28T05:06:55;79.03;;;32.78;;
52898;SDS011;38763;53.096;6.062;2024-02-28T05:09:21;77.63;;;32.63;;
52898;SDS011;38763;53.096;6.062;2024-02-28T05:11:47;73.43;;;31.95;;
52898;SDS011;38763;53.096;6.062;2024-02-28T05:14:12;77.70;;;32.70;;
52898;SDS011;38763;53.096;6.062;2024-02-28T05:16:38;79.95;;;33.58;;
52898;SDS011;38763;53.096;6.062;2024-02-28T05:19:03;83.80;;;34.22;;
52898;SDS011;38763;53.096;6.062;2024-02-28T05:21:29;81.55;;;33.35;;
52898;SDS011;38763;53.096;6.062;2024-02-28T05:23:55;80.18;;;32.92;;
52898;SDS011;38763;53.096;6.062;2024-02-28T05:26:20;80.88;;;33.58;;
52898;SDS011;38763;53.096;6.062;2024-02-28T05:28:46;89.25;;;34.80;;
52898;SDS011;38763;53.096;6.062;2024-02-28T05:31:22;77.75;;;33.47;;
52898;SDS011;38763;53.096;6.062;2024-02-28T05:33:50;83.97;;;34.10;;
52898;SDS011;38763;53.096;6.062;2024-02-28T05:36:21;78.15;;;34.38;;
52898;SDS011;38763;53.096;6.062;2024-02-28T05:38:47;83.05;;;35.25;;
52898;SDS011;38763;53.096;6.062;2024-02-28T05:41:13;84.63;;;33.60;;
52898;SDS011;38763;53.096;6.062;2024-02-28T05:43:39;83.25;;;35.25;;
52898;SDS011;38763;53.096;6.062;2024-02-28T05:46:05;92.93;;;35.47;;
52898;SDS011;38763;53.096;6.062;2024-02-28T05:48:31;88.43;;;37.55;;
52898;SDS011;38763;53.096;6.062;2024-02-28T05:50:57;91.35;;;35.17;;
52898;SDS011;38763;53.096;6.062;2024-02-28T05:53:23;85.57;;;36.95;;
52898;SDS011;38763;53.096;6.062;2024-02-28T05:55:52;89.63;;;37.50;;
52898;SDS011;38763;53.096;6.062;2024-02-28T05:58:21;96.32;;;37.40;;
52898;SDS011;38763;53.096;6.062;2024-02-28T06:00:47;85.95;;;36.55;;
52898;SDS011;38763;53.096;6.062;2024-02-28T06:03:13;89.30;;;37.92;;
52898;SDS011;38763;53.096;6.062;2024-02-28T06:05:39;100.18;;;37.72;;
52898;SDS011;38763;53.096;6.062;2024-02-28T06:08:05;96.35;;;39.65;;
52898;SDS011;38763;53.096;6.062;2024-02-28T06:10:31;94.32;;;38.58;;
52898;SDS011;38763;53.096;6.062;2024-02-28T06:12:57;85.95;;;37.25;;
52898;SDS011;38763;53.096;6.062;2024-02-28T06:15:22;88.20;;;36.40;;
52898;SDS011;38763;53.096;6.062;2024-02-28T06:17:48;92.10;;;36.45;;
52898;SDS011;38763;53.096;6.062;2024-02-28T06:20:14;89.53;;;38.53;;
52898;SDS011;38763;53.096;6.062;2024-02-28T06:22:39;88.75;;;37.38;;
52898;SDS011;38763;53.096;6.062;2024-02-28T06:25:05;92.53;;;39.63;;
52898;SDS011;38763;53.096;6.062;2024-02-28T06:27:38;88.85;;;38.58;;
52898;SDS011;38763;53.096;6.062;2024-02-28T06:30:07;94.50;;;38.80;;
52898;SDS011;38763;53.096;6.062;2024-02-28T06:32:33;92.10;;;37.80;;
52898;SDS011;38763;53.096;6.062;2024-02-28T06:34:59;84.75;;;38.50;;
52898;SDS011;38763;53.096;6.062;2024-02-28T06:37:24;89.93;;;38.15;;
52898;SDS011;38763;53.096;6.062;2024-02-28T06:39:50;82.60;;;35.70;;
52898;SDS011;38763;53.096;6.062;2024-02-28T06:42:16;88.95;;;37.33;;
52898;SDS011;38763;53.096;6.062;2024-02-28T06:44:41;83.18;;;37.25;;
52898;SDS011;38763;53.096;6.062;2024-02-28T06:47:07;88.80;;;37.15;;
52898;SDS011;38763;53.096;6.062;2024-02-28T06:49:34;85.78;;;36.20;;
52898;SDS011;38763;53.096;6.062;2024-02-28T06:51:59;86.57;;;36.25;;
52898;SDS011;38763;53.096;6.062;2024-02-28T06:54:26;83.93;;;35.72;;
52898;SDS011;38763;53.096;6.062;2024-02-28T06:56:52;82.88;;;36.33;;
52898;SDS011;38763;53.096;6.062;2024-02-28T06:59:18;83.40;;;36.83;;
52898;SDS011;38763;53.096;6.062;2024-02-28T07:01:44;86.75;;;35.88;;
52898;SDS011;38763;53.096;6.062;2024-02-28T07:04:10;89.38;;;37.83;;
52898;SDS011;38763;53.096;6.062;2024-02-28T07:06:36;87.00;;;36.72;;
52898;SDS011;38763;53.096;6.062;2024-02-28T07:09:02;89.78;;;38.60;;
52898;SDS011;38763;53.096;6.062;2024-02-28T07:11:28;88.50;;;37.03;;
52898;SDS011;38763;53.096;6.062;2024-02-28T07:13:54;92.05;;;37.90;;
52898;SDS011;38763;53.096;6.062;2024-02-28T07:16:22;92.25;;;37.22;;
52898;SDS011;38763;53.096;6.062;2024-02-28T07:18:47;85.45;;;36.90;;
52898;SDS011;38763;53.096;6.062;2024-02-28T07:21:13;88.78;;;38.08;;
52898;SDS011;38763;53.096;6.062;2024-02-28T07:23:39;92.38;;;40.95;;
52898;SDS011;38763;53.096;6.062;2024-02-28T07:26:06;98.28;;;41.60;;
52898;SDS011;38763;53.096;6.062;2024-02-28T07:28:32;113.85;;;55.75;;
52898;SDS011;38763;53.096;6.062;2024-02-28T07:30:57;108.47;;;47.75;;
52898;SDS011;38763;53.096;6.062;2024-02-28T07:33:23;102.82;;;41.22;;
52898;SDS011;38763;53.096;6.062;2024-02-28T07:35:51;86.88;;;37.17;;
52898;SDS011;38763;53.096;6.062;2024-02-28T07:38:17;83.78;;;37.35;;
52898;SDS011;38763;53.096;6.062;2024-02-28T07:40:45;86.80;;;35.80;;
52898;SDS011;38763;53.096;6.062;2024-02-28T07:43:12;83.15;;;36.70;;
52898;SDS011;38763;53.096;6.062;2024-02-28T07:45:38;78.63;;;36.25;;
52898;SDS011;38763;53.096;6.062;2024-02-28T07:48:05;76.18;;;35.92;;
52898;SDS011;38763;53.096;6.062;2024-02-28T07:50:31;82.00;;;37.42;;
52898;SDS011;38763;53.096;6.062;2024-02-28T07:52:56;74.15;;;35.47;;
52898;SDS011;38763;53.096;6.062;2024-02-28T07:55:22;77.72;;;35.95;;
52898;SDS011;38763;53.096;6.062;2024-02-28T07:57:51;76.90;;;33.97;;
52898;SDS011;38763;53.096;6.062;2024-02-28T08:00:18;75.53;;;35.78;;
52898;SDS011;38763;53.096;6.062;2024-02-28T08:02:45;77.22;;;37.35;;
52898;SDS011;38763;53.096;6.062;2024-02-28T08:05:10;80.45;;;36.60;;
52898;SDS011;38763;53.096;6.062;2024-02-28T08:07:36;79.78;;;37.50;;
52898;SDS011;38763;53.096;6.062;2024-02-28T08:10:02;78.97;;;36.70;;
52898;SDS011;38763;53.096;6.062;2024-02-28T08:12:31;73.00;;;35.90;;
52898;SDS011;38763;53.096;6.062;2024-02-28T08:14:57;73.55;;;35.85;;
52898;SDS011;38763;53.096;6.062;2024-02-28T08:17:23;74.20;;;36.83;;
52898;SDS011;38763;53.096;6.062;2024-02-28T08:19:49;77.50;;;36.47;;
52898;SDS011;38763;53.096;6.062;2024-02-28T08:22:14;69.88;;;36.38;;
52898;SDS011;38763;53.096;6.062;2024-02-28T08:24:40;75.35;;;36.78;;
52898;SDS011;38763;53.096;6.062;2024-02-28T08:27:05;75.75;;;36.60;;
52898;SDS011;38763;53.096;6.062;2024-02-28T08:29:31;74.43;;;36.85;;
52898;SDS011;38763;53.096;6.062;2024-02-28T08:31:58;79.75;;;37.65;;
52898;SDS011;38763;53.096;6.062;2024-02-28T08:34:23;69.63;;;36.20;;
52898;SDS011;38763;53.096;6.062;2024-02-28T08:36:50;75.38;;;39.67;;
52898;SDS011;38763;53.096;6.062;2024-02-28T08:39:17;80.22;;;39.80;;
52898;SDS011;38763;53.096;6.062;2024-02-28T08:41:42;89.53;;;42.00;;
52898;SDS011;38763;53.096;6.062;2024-02-28T08:44:08;86.00;;;42.97;;
52898;SDS011;38763;53.096;6.062;2024-02-28T08:46:34;86.65;;;43.55;;
52898;SDS011;38763;53.096;6.062;2024-02-28T08:48:59;87.20;;;43.47;;
52898;SDS011;38763;53.096;6.062;2024-02-28T08:51:25;97.32;;;49.13;;
52898;SDS011;38763;53.096;6.062;2024-02-28T08:53:51;80.68;;;39.03;;
52898;SDS011;38763;53.096;6.062;2024-02-28T08:56:18;79.85;;;40.30;;
52898;SDS011;38763;53.096;6.062;2024-02-28T08:58:44;90.20;;;45.17;;
52898;SDS011;38763;53.096;6.062;2024-02-28T09:01:14;149.75;;;62.83;;
52898;SDS011;38763;53.096;6.062;2024-02-28T09:03:43;200.95;;;81.43;;
52898;SDS011;38763;53.096;6.062;2024-02-28T09:06:08;133.73;;;58.88;;
52898;SDS011;38763;53.096;6.062;2024-02-28T09:08:34;92.88;;;42.80;;
52898;SDS011;38763;53.096;6.062;2024-02-28T09:11:00;136.95;;;63.20;;
52898;SDS011;38763;53.096;6.062;2024-02-28T09:13:26;79.50;;;41.65;;
52898;SDS011;38763;53.096;6.062;2024-02-28T09:15:52;75.35;;;38.30;;
52898;SDS011;38763;53.096;6.062;2024-02-28T09:18:18;81.00;;;38.70;;
52898;SDS011;38763;53.096;6.062;2024-02-28T09:20:43;68.93;;;37.00;;
52898;SDS011;38763;53.096;6.062;2024-02-28T09:23:09;77.88;;;36.63;;
52898;SDS011;38763;53.096;6.062;2024-02-28T09:25:35;81.85;;;41.38;;
52898;SDS011;38763;53.096;6.062;2024-02-28T09:28:01;78.43;;;38.03;;
52898;SDS011;38763;53.096;6.062;2024-02-28T09:30:27;86.90;;;40.15;;
52898;SDS011;38763;53.096;6.062;2024-02-28T09:32:53;82.65;;;40.92;;
52898;SDS011;38763;53.096;6.062;2024-02-28T09:35:19;84.97;;;39.08;;
52898;SDS011;38763;53.096;6.062;2024-02-28T09:37:45;78.68;;;37.47;;
52898;SDS011;38763;53.096;6.062;2024-02-28T09:40:11;87.18;;;39.13;;
52898;SDS011;38763;53.096;6.062;2024-02-28T09:42:37;94.57;;;42.58;;
52898;SDS011;38763;53.096;6.062;2024-02-28T09:45:03;81.30;;;40.08;;
52898;SDS011;38763;53.096;6.062;2024-02-28T09:47:29;94.93;;;43.33;;
52898;SDS011;38763;53.096;6.062;2024-02-28T09:49:56;101.57;;;45.50;;
52898;SDS011;38763;53.096;6.062;2024-02-28T09:52:26;104.43;;;44.30;;
52898;SDS011;38763;53.096;6.062;2024-02-28T09:54:52;100.00;;;44.17;;
52898;SDS011;38763;53.096;6.062;2024-02-28T09:57:18;102.20;;;47.08;;
52898;SDS011;38763;53.096;6.062;2024-02-28T09:59:44;117.85;;;51.90;;
52898;SDS011;38763;53.096;6.062;2024-02-28T10:02:11;120.18;;;54.97;;
52898;SDS011;38763;53.096;6.062;2024-02-28T10:04:39;103.13;;;42.63;;
52898;SDS011;38763;53.096;6.062;2024-02-28T10:07:15;97.43;;;43.53;;
52898;SDS011;38763;53.096;6.062;2024-02-28T10:09:41;112.50;;;51.38;;
52898;SDS011;38763;53.096;6.062;2024-02-28T10:12:07;106.97;;;48.85;;
52898;SDS011;38763;53.096;6.062;2024-02-28T10:14:32;105.60;;;47.13;;
52898;SDS011;38763;53.096;6.062;2024-02-28T10:16:59;103.15;;;46.22;;
52898;SDS011;38763;53.096;6.062;2024-02-28T10:19:24;107.10;;;50.17;;
52898;SDS011;38763;53.096;6.062;2024-02-28T10:21:50;117.60;;;53.92;;
52898;SDS011;38763;53.096;6.062;2024-02-28T10:24:16;101.97;;;46.95;;
52898;SDS011;38763;53.096;6.062;2024-02-28T10:26:45;105.00;;;50.30;;
52898;SDS011;38763;53.096;6.062;2024-02-28T10:29:23;102.35;;;47.72;;
52898;SDS011;38763;53.096;6.062;2024-02-28T10:31:50;95.90;;;46.33;;
52898;SDS011;38763;53.096;6.062;2024-02-28T10:34:22;98.50;;;48.30;;
52898;SDS011;38763;53.096;6.062;2024-02-28T10:36:48;102.07;;;46.63;;
52898;SDS011;38763;53.096;6.062;2024-02-28T10:39:14;95.00;;;46.30;;
52898;SDS011;38763;53.096;6.062;2024-02-28T10:41:40;88.28;;;43.15;;
52898;SDS011;38763;53.096;6.062;2024-02-28T10:44:07;89.55;;;46.17;;
52898;SDS011;38763;53.096;6.062;2024-02-28T10:46:33;93.47;;;45.35;;
52898;SDS011;38763;53.096;6.062;2024-02-28T10:49:00;85.95;;;42.78;;
52898;SDS011;38763;53.096;6.062;2024-02-28T10:51:26;83.63;;;43.05;;
52898;SDS011;38763;53.096;6.062;2024-02-28T10:53:59;79.25;;;40.60;;
52898;SDS011;38763;53.096;6.062;2024-02-28T10:56:33;80.95;;;40.67;;
52898;SDS011;38763;53.096;6.062;2024-02-28T10:58:59;74.95;;;39.00;;
52898;SDS011;38763;53.096;6.062;2024-02-28T11:01:26;86.18;;;42.55;;
52898;SDS011;38763;53.096;6.062;2024-02-28T11:03:52;72.25;;;38.17;;
52898;SDS011;38763;53.096;6.062;2024-02-28T11:06:19;73.00;;;39.33;;
52898;SDS011;38763;53.096;6.062;2024-02-28T11:08:49;78.22;;;39.17;;
52898;SDS011;38763;53.096;6.062;2024-02-28T11:11:21;68.00;;;36.53;;
52898;SDS011;38763;53.096;6.062;2024-02-28T11:14:05;72.38;;;37.72;;
52898;SDS011;38763;53.096;6.062;2024-02-28T11:16:39;74.45;;;38.10;;
52898;SDS011;38763;53.096;6.062;2024-02-28T11:19:07;74.78;;;38.90;;
52898;SDS011;38763;53.096;6.062;2024-02-28T11:21:34;69.57;;;37.78;;
52898;SDS011;38763;53.096;6.062;2024-02-28T11:24:00;69.38;;;36.38;;
52898;SDS011;38763;53.096;6.062;2024-02-28T11:26:27;68.53;;;37.83;;
52898;SDS011;38763;53.096;6.062;2024-02-28T11:28:54;70.53;;;38.17;;
52898;SDS011;38763;53.096;6.062;2024-02-28T11:31:20;70.57;;;36.42;;
52898;SDS011;38763;53.096;6.062;2024-02-28T11:33:46;67.95;;;36.60;;
52898;SDS011;38763;53.096;6.062;2024-02-28T11:36:12;69.70;;;36.65;;
52898;SDS011;38763;53.096;6.062;2024-02-28T11:38:39;61.10;;;35.63;;
52898;SDS011;38763;53.096;6.062;2024-02-28T11:41:05;63.63;;;35.58;;
52898;SDS011;38763;53.096;6.062;2024-02-28T11:43:31;57.63;;;34.42;;
52898;SDS011;38763;53.096;6.062;2024-02-28T11:45:57;61.30;;;35.45;;
52898;SDS011;38763;53.096;6.062;2024-02-28T11:48:24;57.22;;;33.92;;
52898;SDS011;38763;53.096;6.062;2024-02-28T11:50:51;57.15;;;33.60;;
52898;SDS011;38763;53.096;6.062;2024-02-28T11:53:18;61.85;;;36.25;;
52898;SDS011;38763;53.096;6.062;2024-02-28T11:55:45;67.13;;;40.22;;
52898;SDS011;38763;53.096;6.062;2024-02-28T11:58:14;65.28;;;36.80;;
52898;SDS011;38763;53.096;6.062;2024-02-28T12:00:47;64.57;;;38.00;;
52898;SDS011;38763;53.096;6.062;2024-02-28T12:03:13;63.92;;;37.95;;
52898;SDS011;38763;53.096;6.062;2024-02-28T12:05:38;53.83;;;33.03;;
52898;SDS011;38763;53.096;6.062;2024-02-28T12:08:09;54.65;;;33.58;;
52898;SDS011;38763;53.096;6.062;2024-02-28T12:10:36;56.25;;;34.47;;
52898;SDS011;38763;53.096;6.062;2024-02-28T12:13:02;56.45;;;33.13;;
52898;SDS011;38763;53.096;6.062;2024-02-28T12:15:30;59.75;;;33.08;;
52898;SDS011;38763;53.096;6.062;2024-02-28T12:17:57;56.90;;;33.42;;
52898;SDS011;38763;53.096;6.062;2024-02-28T12:20:25;52.40;;;33.28;;
52898;SDS011;38763;53.096;6.062;2024-02-28T12:22:51;54.10;;;33.38;;
52898;SDS011;38763;53.096;6.062;2024-02-28T12:25:16;53.38;;;34.15;;
52898;SDS011;38763;53.096;6.062;2024-02-28T12:27:42;55.00;;;33.58;;
52898;SDS011;38763;53.096;6.062;2024-02-28T12:30:08;63.45;;;45.78;;
52898;SDS011;38763;53.096;6.062;2024-02-28T12:32:34;57.05;;;38.63;;
52898;SDS011;38763;53.096;6.062;2024-02-28T12:34:59;65.40;;;42.72;;
52898;SDS011;38763;53.096;6.062;2024-02-28T12:37:25;83.28;;;45.33;;
52898;SDS011;38763;53.096;6.062;2024-02-28T12:39:51;49.15;;;31.63;;
52898;SDS011;38763;53.096;6.062;2024-02-28T12:42:17;65.00;;;37.75;;
52898;SDS011;38763;53.096;6.062;2024-02-28T12:44:43;73.28;;;39.75;;
52898;SDS011;38763;53.096;6.062;2024-02-28T12:47:12;66.70;;;39.22;;
52898;SDS011;38763;53.096;6.062;2024-02-28T12:49:38;105.65;;;51.90;;
52898;SDS011;38763;53.096;6.062;2024-02-28T12:52:03;100.45;;;47.88;;
52898;SDS011;38763;53.096;6.062;2024-02-28T12:54:29;71.75;;;39.90;;
52898;SDS011;38763;53.096;6.062;2024-02-28T12:56:55;68.63;;;38.45;;
52898;SDS011;38763;53.096;6.062;2024-02-28T12:59:21;81.75;;;43.72;;
52898;SDS011;38763;53.096;6.062;2024-02-28T13:01:47;142.90;;;62.67;;
52898;SDS011;38763;53.096;6.062;2024-02-28T13:04:15;95.03;;;48.00;;
52898;SDS011;38763;53.096;6.062;2024-02-28T13:06:41;68.53;;;38.83;;
52898;SDS011;38763;53.096;6.062;2024-02-28T13:09:07;56.40;;;33.45;;
52898;SDS011;38763;53.096;6.062;2024-02-28T13:11:37;55.25;;;30.58;;
52898;SDS011;38763;53.096;6.062;2024-02-28T13:14:03;61.55;;;33.50;;
52898;SDS011;38763;53.096;6.062;2024-02-28T13:16:29;76.90;;;40.65;;
52898;SDS011;38763;53.096;6.062;2024-02-28T13:18:55;47.80;;;28.48;;
52898;SDS011;38763;53.096;6.062;2024-02-28T13:21:21;45.25;;;27.77;;
52898;SDS011;38763;53.096;6.062;2024-02-28T13:23:46;41.85;;;27.23;;
52898;SDS011;38763;53.096;6.062;2024-02-28T13:26:12;54.70;;;30.88;;
52898;SDS011;38763;53.096;6.062;2024-02-28T13:31:11;40.92;;;26.95;;
52898;SDS011;38763;53.096;6.062;2024-02-28T13:33:37;45.70;;;30.13;;
52898;SDS011;38763;53.096;6.062;2024-02-28T13:36:04;46.47;;;29.52;;
52898;SDS011;38763;53.096;6.062;2024-02-28T13:38:30;48.40;;;30.85;;
52898;SDS011;38763;53.096;6.062;2024-02-28T13:40:55;57.88;;;34.95;;
52898;SDS011;38763;53.096;6.062;2024-02-28T13:43:21;80.55;;;42.15;;
52898;SDS011;38763;53.096;6.062;2024-02-28T13:45:47;161.38;;;70.22;;
52898;SDS011;38763;53.096;6.062;2024-02-28T13:48:22;71.53;;;49.75;;
52898;SDS011;38763;53.096;6.062;2024-02-28T13:50:49;40.88;;;30.38;;
52898;SDS011;38763;53.096;6.062;2024-02-28T13:53:15;41.10;;;27.42;;
52898;SDS011;38763;53.096;6.062;2024-02-28T13:55:41;42.83;;;28.55;;
52898;SDS011;38763;53.096;6.062;2024-02-28T13:58:10;39.22;;;25.77;;
52898;SDS011;38763;53.096;6.062;2024-02-28T14:00:37;39.00;;;26.70;;
52898;SDS011;38763;53.096;6.062;2024-02-28T14:03:04;40.17;;;28.13;;
52898;SDS011;38763;53.096;6.062;2024-02-28T14:05:31;38.97;;;27.02;;
52898;SDS011;38763;53.096;6.062;2024-02-28T14:07:57;40.78;;;27.90;;
52898;SDS011;38763;53.096;6.062;2024-02-28T14:10:23;40.38;;;28.02;;
52898;SDS011;38763;53.096;6.062;2024-02-28T14:12:49;39.67;;;28.52;;
52898;SDS011;38763;53.096;6.062;2024-02-28T14:15:17;45.70;;;28.88;;
52898;SDS011;38763;53.096;6.062;2024-02-28T14:17:44;41.22;;;28.08;;
52898;SDS011;38763;53.096;6.062;2024-02-28T14:20:09;38.80;;;26.55;;